createdAt,value
2024-05-09T00:00:35.812Z,9.42
2024-05-09T00:03:10.192Z,9.43
2024-05-09T00:05:38.419Z,9.32
2024-05-09T00:08:05.970Z,9.40
2024-05-09T00:10:37.227Z,9.43
2024-05-09T00:13:09.762Z,9.45
2024-05-09T00:15:37.176Z,9.40
2024-05-09T00:18:05.315Z,9.36
2024-05-09T00:20:37.993Z,9.43
2024-05-09T00:23:09.258Z,9.40
2024-05-09T00:25:36.790Z,9.37
2024-05-09T00:28:03.700Z,9.38
2024-05-09T00:30:35.047Z,9.35
2024-05-09T00:33:07.777Z,9.35
2024-05-09T00:35:35.786Z,9.26
2024-05-09T00:38:02.717Z,9.16
2024-05-09T00:40:40.016Z,9.26
2024-05-09T00:43:09.915Z,9.22
2024-05-09T00:45:36.649Z,9.10
2024-05-09T00:48:07.121Z,9.15
2024-05-09T00:50:37.557Z,9.11
2024-05-09T00:53:10.962Z,9.11
2024-05-09T00:55:38.880Z,9.09
2024-05-09T00:58:08.214Z,9.03
2024-05-09T01:00:39.322Z,8.99
2024-05-09T01:03:09.724Z,8.99
2024-05-09T01:05:39.212Z,8.99
2024-05-09T01:08:07.094Z,8.86
2024-05-09T01:10:35.472Z,8.91
2024-05-09T01:13:04.458Z,8.91
2024-05-09T01:15:31.596Z,8.86
2024-05-09T01:18:01.018Z,8.86
2024-05-09T01:20:39.029Z,8.86
2024-05-09T01:23:09.854Z,8.78
2024-05-09T01:25:36.958Z,8.81
2024-05-09T01:28:03.864Z,8.78
2024-05-09T01:30:34.981Z,8.77
2024-05-09T01:33:05.377Z,8.72
2024-05-09T01:35:33.227Z,8.70
2024-05-09T01:37:59.971Z,8.64
2024-05-09T01:40:36.259Z,8.61
2024-05-09T01:43:06.033Z,8.62
2024-05-09T01:45:32.779Z,8.59
2024-05-09T01:47:59.754Z,8.56
2024-05-09T01:50:37.278Z,8.52
2024-05-09T01:53:08.964Z,8.47
2024-05-09T01:55:35.730Z,8.46
2024-05-09T01:58:02.319Z,8.38
2024-05-09T02:00:37.371Z,8.37
2024-05-09T02:03:10.740Z,8.21
2024-05-09T02:05:39.306Z,8.33
2024-05-09T02:08:07.263Z,8.30
2024-05-09T02:10:33.984Z,8.27
2024-05-09T02:13:01.063Z,8.25
2024-05-09T02:15:27.846Z,8.17
2024-05-09T02:17:54.702Z,8.12
2024-05-09T02:20:30.255Z,8.21
2024-05-09T02:23:03.817Z,8.20
2024-05-09T02:25:30.929Z,8.18
2024-05-09T02:27:57.539Z,8.17
2024-05-09T02:30:37.717Z,8.07
2024-05-09T02:33:08.210Z,8.10
2024-05-09T02:35:35.729Z,8.08
2024-05-09T02:38:02.559Z,8.07
2024-05-09T02:40:36.527Z,8.03
2024-05-09T02:43:10.467Z,7.99
2024-05-09T02:45:41.173Z,7.93
2024-05-09T02:48:12.203Z,7.94
2024-05-09T02:50:44.415Z,7.87
2024-05-09T02:53:11.917Z,7.84
2024-05-09T02:55:39.164Z,7.76
2024-05-09T02:58:07.304Z,7.82
2024-05-09T03:00:38.857Z,7.78
2024-05-09T03:03:09.587Z,7.67
2024-05-09T03:05:37.804Z,7.72
2024-05-09T03:08:04.875Z,7.72
2024-05-09T03:10:36.250Z,7.69
2024-05-09T03:13:13.824Z,7.68
2024-05-09T03:15:41.969Z,7.55
2024-05-09T03:18:08.831Z,7.52
2024-05-09T03:20:36.826Z,7.60
2024-05-09T03:23:09.397Z,7.60
2024-05-09T03:25:36.981Z,7.56
2024-05-09T03:28:03.769Z,7.49
2024-05-09T03:30:39.322Z,7.49
2024-05-09T03:33:19.959Z,7.48
2024-05-09T03:35:48.544Z,7.51
2024-05-09T03:38:15.761Z,7.48
2024-05-09T03:40:46.773Z,7.53
2024-05-09T03:43:13.968Z,7.52
2024-05-09T03:45:40.607Z,7.54
2024-05-09T03:48:07.935Z,7.55
2024-05-09T03:50:36.234Z,7.58
2024-05-09T03:53:03.983Z,7.59
2024-05-09T03:55:31.170Z,7.58
2024-05-09T03:57:57.869Z,7.59
2024-05-09T04:00:31.421Z,7.49
2024-05-09T04:03:05.916Z,7.68
2024-05-09T04:05:34.405Z,7.69
2024-05-09T04:08:01.496Z,7.71
2024-05-09T04:10:35.123Z,7.75
2024-05-09T04:13:03.283Z,7.74
2024-05-09T04:15:30.468Z,7.76
2024-05-09T04:17:57.186Z,7.80
2024-05-09T04:20:33.360Z,7.82
2024-05-09T04:23:14.713Z,7.84
2024-05-09T04:25:43.121Z,7.92
2024-05-09T04:28:10.034Z,7.96
2024-05-09T04:30:39.642Z,7.95
2024-05-09T04:33:10.754Z,8.06
2024-05-09T04:35:39.398Z,8.05
2024-05-09T04:38:06.539Z,8.16
2024-05-09T04:40:36.098Z,8.17
2024-05-09T04:43:04.995Z,8.28
2024-05-09T04:45:31.908Z,8.28
2024-05-09T04:47:58.926Z,8.39
2024-05-09T04:50:35.200Z,8.46
2024-05-09T04:53:05.625Z,8.53
2024-05-09T04:55:39.240Z,8.62
2024-05-09T04:58:08.717Z,8.62
2024-05-09T05:00:37.687Z,8.75
2024-05-09T05:03:09.344Z,8.95
2024-05-09T05:05:41.329Z,8.95
2024-05-09T05:08:18.974Z,9.24
2024-05-09T05:10:47.195Z,9.34
2024-05-09T05:13:23.049Z,9.53
2024-05-09T05:15:56.968Z,9.68
2024-05-09T05:18:25.969Z,9.89
2024-05-09T05:20:52.792Z,9.98
2024-05-09T05:23:20.972Z,10.16
2024-05-09T05:25:50.196Z,10.40
2024-05-09T05:28:17.208Z,10.55
2024-05-09T05:30:44.404Z,10.71
2024-05-09T05:33:12.925Z,10.88
2024-05-09T05:35:40.866Z,11.05
2024-05-09T05:38:08.780Z,11.20
2024-05-09T05:40:38.355Z,11.35
2024-05-09T05:43:07.343Z,11.52
2024-05-09T05:45:34.010Z,11.77
2024-05-09T05:48:04.028Z,12.01
2024-05-09T05:50:35.876Z,12.13
2024-05-09T05:53:07.057Z,12.48
2024-05-09T05:55:34.363Z,12.66
2024-05-09T05:58:02.374Z,12.90
2024-05-09T06:00:35.530Z,13.00
2024-05-09T06:03:06.060Z,13.27
2024-05-09T06:05:33.114Z,13.41
2024-05-09T06:08:00.147Z,13.70
2024-05-09T06:10:36.961Z,13.91
2024-05-09T06:13:06.398Z,14.10
2024-05-09T06:15:32.964Z,14.34
2024-05-09T06:17:59.718Z,14.46
2024-05-09T06:20:34.825Z,14.66
2024-05-09T06:23:04.415Z,14.83
2024-05-09T06:25:31.425Z,14.98
2024-05-09T06:27:59.030Z,15.01
2024-05-09T06:30:30.970Z,15.29
2024-05-09T06:33:06.042Z,15.46
2024-05-09T06:35:33.631Z,15.55
2024-05-09T06:38:00.689Z,15.67
2024-05-09T06:40:36.215Z,15.64
2024-05-09T06:43:10.190Z,15.89
2024-05-09T06:45:37.075Z,15.92
2024-05-09T06:48:04.231Z,16.09
2024-05-09T06:50:37.005Z,16.23
2024-05-09T06:53:05.463Z,16.33
2024-05-09T06:55:32.165Z,16.42
2024-05-09T06:57:59.075Z,16.67
2024-05-09T07:00:34.553Z,16.81
2024-05-09T07:03:15.655Z,17.06
2024-05-09T07:05:45.245Z,17.08
2024-05-09T07:08:12.325Z,17.32
2024-05-09T07:10:39.093Z,17.53
2024-05-09T07:13:13.494Z,17.76
2024-05-09T07:15:41.548Z,17.92
2024-05-09T07:18:17.379Z,18.20
2024-05-09T07:20:45.582Z,18.41
2024-05-09T07:23:12.760Z,18.52
2024-05-09T07:25:40.582Z,18.56
2024-05-09T07:28:15.397Z,18.73
2024-05-09T07:30:42.953Z,18.61
2024-05-09T07:33:09.857Z,18.72
2024-05-09T07:35:37.203Z,18.79
2024-05-09T07:38:04.104Z,18.70
2024-05-09T07:40:35.944Z,18.82
2024-05-09T07:43:04.584Z,18.90
2024-05-09T07:45:48.042Z,18.92
2024-05-09T07:53:38.907Z,19.00
2024-05-09T07:56:09.392Z,19.05
2024-05-09T07:58:36.806Z,19.23
2024-05-09T08:01:03.668Z,19.32
2024-05-09T08:03:30.906Z,19.19
2024-05-09T08:05:57.827Z,19.52
2024-05-09T08:08:24.483Z,19.56
2024-05-09T08:10:51.324Z,19.43
2024-05-09T08:13:18.207Z,19.59
2024-05-09T08:15:45.043Z,19.63
2024-05-09T08:18:12.143Z,19.55
2024-05-09T08:20:39.537Z,19.74
2024-05-09T08:23:06.404Z,19.70
2024-05-09T08:25:33.136Z,19.76
2024-05-09T08:27:59.919Z,19.74
2024-05-09T08:30:33.414Z,19.76
2024-05-09T08:33:05.100Z,19.79
2024-05-09T08:35:32.736Z,19.86
2024-05-09T08:37:59.474Z,19.96
2024-05-09T08:40:33.551Z,20.06
2024-05-09T08:43:06.821Z,20.03
2024-05-09T08:45:35.134Z,20.21
2024-05-09T08:48:06.060Z,20.26
2024-05-09T08:50:38.766Z,20.20
2024-05-09T08:53:07.473Z,20.21
2024-05-09T08:55:35.453Z,20.24
2024-05-09T08:58:04.238Z,20.18
2024-05-09T09:00:36.844Z,20.17
2024-05-09T09:03:09.071Z,20.35
2024-05-09T09:05:38.504Z,20.49
2024-05-09T09:08:07.883Z,20.71
2024-05-09T09:10:35.593Z,20.87
2024-05-09T09:13:04.445Z,21.17
2024-05-09T09:15:31.789Z,21.36
2024-05-09T09:18:01.730Z,21.74
2024-05-09T09:20:35.886Z,22.43
2024-05-09T09:23:04.598Z,22.42
2024-05-09T09:25:31.843Z,22.66
2024-05-09T09:27:59.326Z,22.89
2024-05-09T09:30:36.300Z,23.30
2024-05-09T09:33:06.063Z,23.49
2024-05-09T09:35:33.006Z,23.69
2024-05-09T09:38:02.879Z,23.98
2024-05-09T09:40:37.209Z,24.13
2024-05-09T09:43:14.121Z,24.50
2024-05-09T09:45:43.256Z,24.64
2024-05-09T09:48:11.941Z,24.78
2024-05-09T09:50:40.124Z,24.92
2024-05-09T09:53:07.892Z,25.25
2024-05-09T09:55:35.682Z,25.41
2024-05-09T09:58:04.105Z,25.48
2024-05-09T10:00:33.613Z,25.38
2024-05-09T10:03:01.710Z,25.34
2024-05-09T10:05:29.379Z,25.31
2024-05-09T10:07:57.428Z,25.65
2024-05-09T10:10:31.644Z,25.61
2024-05-09T10:13:09.089Z,25.73
2024-05-09T10:15:52.299Z,25.68
2024-05-09T10:18:28.118Z,25.45
2024-05-09T10:20:57.105Z,25.52
2024-05-09T10:23:32.344Z,25.69
2024-05-09T10:26:06.240Z,25.62
2024-05-09T10:28:37.551Z,25.62
2024-05-09T10:31:15.466Z,25.76
2024-05-09T10:33:51.766Z,25.84
2024-05-09T10:36:26.194Z,25.85
2024-05-09T10:38:53.958Z,26.15
2024-05-09T10:41:22.689Z,26.16
2024-05-09T10:43:50.494Z,26.27
2024-05-09T10:46:19.120Z,26.40
2024-05-09T10:48:47.376Z,26.46
2024-05-09T10:51:14.683Z,26.34
2024-05-09T10:53:46.153Z,26.65
2024-05-09T10:56:16.532Z,26.53
2024-05-09T10:58:43.312Z,26.59
2024-05-09T11:01:11.040Z,26.79
2024-05-09T11:03:39.042Z,26.77
2024-05-09T11:06:06.646Z,26.91
2024-05-09T11:08:34.046Z,27.04
2024-05-09T11:11:03.004Z,27.17
2024-05-09T11:13:31.627Z,27.17
2024-05-09T11:16:02.185Z,27.27
2024-05-09T11:18:33.807Z,27.39
2024-05-09T11:21:11.148Z,27.48
2024-05-09T11:23:38.128Z,27.42
2024-05-09T11:26:04.930Z,27.50
2024-05-09T11:28:31.603Z,27.39
2024-05-09T11:31:10.112Z,27.39
2024-05-09T11:33:39.130Z,27.04
2024-05-09T11:36:07.055Z,26.87
2024-05-09T11:38:33.706Z,26.82
2024-05-09T11:41:00.340Z,26.70
2024-05-09T11:43:27.019Z,26.74
2024-05-09T11:45:53.782Z,26.67
2024-05-09T11:48:20.783Z,26.75
2024-05-09T11:50:47.505Z,26.86
2024-05-09T11:53:14.070Z,27.05
2024-05-09T11:55:40.662Z,27.14
2024-05-09T11:58:08.387Z,27.24
2024-05-09T12:00:37.456Z,27.22
2024-05-09T12:03:05.871Z,27.25
2024-05-09T12:05:34.136Z,27.02
2024-05-09T12:08:01.463Z,27.05
2024-05-09T12:10:33.428Z,26.69
2024-05-09T12:13:04.378Z,26.70
2024-05-09T12:15:32.494Z,26.58
2024-05-09T12:18:01.691Z,26.32
2024-05-09T12:20:36.584Z,26.28
2024-05-09T12:23:06.467Z,26.36
2024-05-09T12:25:33.277Z,26.37
2024-05-09T12:28:00.311Z,26.49
2024-05-09T12:30:35.513Z,26.51
2024-05-09T12:33:06.765Z,26.60
2024-05-09T12:35:33.400Z,26.66
2024-05-09T12:38:00.291Z,26.53
2024-05-09T12:40:35.333Z,26.57
2024-05-09T12:43:06.126Z,26.27
2024-05-09T12:45:32.971Z,26.26
2024-05-09T12:47:59.808Z,26.26
2024-05-09T12:50:32.405Z,26.34
2024-05-09T12:53:01.006Z,26.44
2024-05-09T12:55:28.553Z,26.46
2024-05-09T12:57:57.261Z,26.38
2024-05-09T13:00:31.086Z,26.42
2024-05-09T13:03:01.202Z,26.45
2024-05-09T13:05:28.494Z,26.34
2024-05-09T13:07:56.671Z,26.46
2024-05-09T13:10:30.854Z,26.40
2024-05-09T13:13:00.798Z,26.42
2024-05-09T13:15:28.094Z,26.57
2024-05-09T13:17:57.277Z,26.58
2024-05-09T13:20:31.986Z,26.61
2024-05-09T13:23:02.663Z,26.69
2024-05-09T13:25:29.373Z,26.47
2024-05-09T13:27:56.741Z,26.54
2024-05-09T13:30:29.820Z,26.42
2024-05-09T13:33:06.323Z,26.44
2024-05-09T13:35:35.325Z,26.30
2024-05-09T13:38:03.735Z,26.09
2024-05-09T13:40:34.443Z,25.97
2024-05-09T13:43:04.076Z,25.84
2024-05-09T13:45:31.073Z,25.56
2024-05-09T13:47:58.168Z,25.58
2024-05-09T13:50:33.176Z,25.46
2024-05-09T13:53:02.694Z,25.44
2024-05-09T13:55:29.264Z,25.40
2024-05-09T13:57:56.335Z,25.41
2024-05-09T14:00:37.350Z,25.34
2024-05-09T14:03:10.071Z,25.41
2024-05-09T14:05:37.034Z,25.43
2024-05-09T14:08:04.144Z,25.53
2024-05-09T14:10:32.228Z,25.73
2024-05-09T14:13:00.749Z,25.79
2024-05-09T14:15:27.773Z,25.81
2024-05-09T14:17:55.301Z,25.95
2024-05-09T14:20:31.035Z,26.06
2024-05-09T14:23:00.398Z,25.98
2024-05-09T14:25:28.633Z,25.92
2024-05-09T14:27:57.533Z,25.95
2024-05-09T14:30:31.020Z,25.91
2024-05-09T14:33:04.155Z,25.82
2024-05-09T14:35:30.975Z,25.72
2024-05-09T14:37:57.679Z,25.65
2024-05-09T14:42:53.725Z,25.64
2024-05-09T14:45:20.738Z,25.55
2024-05-09T14:47:47.467Z,25.43
2024-05-09T14:50:23.528Z,25.32
2024-05-09T14:52:54.768Z,25.19
2024-05-09T14:55:21.499Z,25.19
2024-05-09T14:57:48.345Z,25.02
2024-05-09T15:00:21.473Z,25.08
2024-05-09T15:02:55.447Z,25.05
2024-05-09T15:05:47.936Z,25.37
2024-05-09T15:08:17.429Z,25.33
2024-05-09T15:10:44.224Z,25.16
2024-05-09T15:13:13.241Z,25.31
2024-05-09T15:15:41.864Z,25.38
2024-05-09T15:18:08.798Z,25.34
2024-05-09T15:20:37.131Z,25.28
2024-05-09T15:23:05.522Z,25.12
2024-05-09T15:25:33.533Z,25.10
2024-05-09T15:28:00.420Z,24.98
2024-05-09T15:30:31.443Z,24.71
2024-05-09T15:33:00.859Z,24.61
2024-05-09T15:35:27.926Z,24.29
2024-05-09T15:37:54.650Z,24.28
2024-05-09T15:40:30.885Z,23.89
2024-05-09T15:43:05.219Z,23.81
2024-05-09T15:45:32.145Z,23.63
2024-05-09T15:47:59.596Z,23.64
2024-05-09T15:50:36.080Z,23.56
2024-05-09T15:53:07.630Z,23.39
2024-05-09T15:55:35.190Z,23.14
2024-05-09T15:58:03.216Z,22.91
2024-05-09T16:00:37.803Z,22.65
2024-05-09T16:03:12.775Z,22.50
2024-05-09T16:05:41.410Z,22.39
2024-05-09T16:08:08.995Z,22.19
2024-05-09T16:10:37.063Z,22.22
2024-05-09T16:13:04.991Z,22.27
2024-05-09T16:15:32.139Z,22.29
2024-05-09T16:17:59.785Z,22.24
2024-05-09T16:20:34.959Z,22.13
2024-05-09T16:23:07.300Z,22.23
2024-05-09T16:25:34.093Z,22.22
2024-05-09T16:28:01.748Z,22.06
2024-05-09T16:30:34.500Z,22.10
2024-05-09T16:33:04.303Z,22.02
2024-05-09T16:35:32.119Z,21.99
2024-05-09T16:38:02.198Z,21.86
2024-05-09T16:40:36.400Z,21.99
2024-05-09T16:43:06.696Z,21.61
2024-05-09T16:45:34.240Z,21.58
2024-05-09T16:48:01.913Z,21.45
2024-05-09T16:50:33.466Z,21.44
2024-05-09T16:53:02.444Z,21.38
2024-05-09T16:55:29.136Z,21.20
2024-05-09T16:57:57.255Z,21.25
2024-05-09T17:00:35.221Z,21.22
2024-05-09T17:03:08.702Z,21.23
2024-05-09T17:05:36.120Z,21.17
2024-05-09T17:08:03.472Z,21.11
2024-05-09T17:10:33.609Z,21.03
2024-05-09T17:13:03.265Z,21.04
2024-05-09T17:15:31.931Z,20.89
2024-05-09T17:17:58.828Z,20.93
2024-05-09T17:20:32.211Z,20.67
2024-05-09T17:23:02.729Z,20.63
2024-05-09T17:25:29.552Z,20.66
2024-05-09T17:27:57.072Z,20.56
2024-05-09T17:30:32.003Z,20.45
2024-05-09T17:33:03.978Z,20.30
2024-05-09T17:35:31.660Z,20.21
2024-05-09T17:37:59.580Z,20.26
2024-05-09T17:40:32.622Z,20.14
2024-05-09T17:43:02.994Z,20.07
2024-05-09T17:45:29.799Z,19.96
2024-05-09T17:47:56.770Z,19.87
2024-05-09T17:50:30.369Z,19.78
2024-05-09T17:53:01.290Z,19.71
2024-05-09T17:55:28.666Z,19.63
2024-05-09T17:57:55.553Z,19.55
2024-05-09T18:00:32.846Z,19.54
2024-05-09T18:03:05.882Z,19.47
2024-05-09T18:05:32.942Z,19.36
2024-05-09T18:07:59.966Z,19.39
2024-05-09T18:10:33.698Z,19.35
2024-05-09T18:13:05.313Z,19.13
2024-05-09T18:15:32.322Z,19.22
2024-05-09T18:17:59.445Z,19.22
2024-05-09T18:20:32.994Z,19.16
2024-05-09T18:23:07.863Z,19.08
2024-05-09T18:25:34.911Z,18.90
2024-05-09T18:28:02.795Z,18.95
2024-05-09T18:30:34.754Z,18.91
2024-05-09T18:33:04.313Z,18.84
2024-05-09T18:35:31.686Z,18.77
2024-05-09T18:37:58.402Z,18.70
2024-05-09T18:40:32.415Z,18.61
2024-05-09T18:43:02.953Z,18.55
2024-05-09T18:45:29.834Z,18.28
2024-05-09T18:47:56.831Z,18.38
2024-05-09T18:50:32.235Z,18.32
2024-05-09T18:53:03.471Z,18.27
2024-05-09T18:55:30.047Z,18.16
2024-05-09T18:57:56.991Z,18.10
2024-05-09T19:00:33.208Z,17.88
2024-05-09T19:03:05.592Z,17.93
2024-05-09T19:05:33.294Z,17.75
2024-05-09T19:08:00.424Z,17.75
2024-05-09T19:10:33.704Z,17.67
2024-05-09T19:13:04.312Z,17.57
2024-05-09T19:15:33.646Z,17.47
2024-05-09T19:18:00.662Z,17.37
2024-05-09T19:20:33.166Z,17.35
2024-05-09T19:23:01.538Z,17.29
2024-05-09T19:25:28.125Z,17.25
2024-05-09T19:27:54.782Z,17.20
2024-05-09T19:30:29.908Z,17.16
2024-05-09T19:33:04.944Z,17.12
2024-05-09T19:35:32.227Z,17.05
2024-05-09T19:37:58.997Z,17.02
2024-05-09T19:40:31.299Z,16.88
2024-05-09T19:43:00.442Z,16.91
2024-05-09T19:45:27.351Z,16.85
2024-05-09T19:47:54.264Z,16.83
2024-05-09T19:50:27.139Z,16.74
2024-05-09T19:53:03.096Z,16.56
2024-05-09T19:55:29.920Z,16.65
2024-05-09T19:57:56.931Z,16.62
2024-05-09T20:00:32.321Z,16.56
2024-05-09T20:03:02.387Z,16.49
2024-05-09T20:05:31.465Z,16.40
2024-05-09T20:07:58.386Z,16.27
2024-05-09T20:10:31.126Z,16.23
2024-05-09T20:13:00.026Z,16.28
2024-05-09T20:15:26.866Z,16.24
2024-05-09T20:17:54.343Z,16.13
2024-05-09T20:20:32.085Z,16.08
2024-05-09T20:23:03.903Z,16.10
2024-05-09T20:25:30.509Z,16.13
2024-05-09T20:27:57.175Z,16.07
2024-05-09T20:30:31.225Z,16.04
2024-05-09T20:32:59.994Z,16.08
2024-05-09T20:35:26.958Z,16.06
2024-05-09T20:37:53.651Z,16.05
2024-05-09T20:40:28.344Z,16.01
2024-05-09T20:42:59.208Z,15.87
2024-05-09T20:45:26.351Z,16.05
2024-05-09T20:47:53.220Z,16.06
2024-05-09T20:50:28.523Z,16.10
2024-05-09T20:53:03.027Z,16.13
2024-05-09T20:55:30.068Z,16.15
2024-05-09T20:57:57.525Z,16.17
2024-05-09T21:00:34.308Z,16.06
2024-05-09T21:03:06.723Z,16.14
2024-05-09T21:05:34.648Z,16.24
2024-05-09T21:08:01.854Z,16.25
2024-05-09T21:10:32.732Z,16.25
2024-05-09T21:13:01.407Z,16.25
2024-05-09T21:15:28.359Z,16.27
2024-05-09T21:17:55.215Z,16.23
2024-05-09T21:20:28.700Z,16.27
2024-05-09T21:22:58.195Z,16.25
2024-05-09T21:25:24.858Z,16.19
2024-05-09T21:27:51.529Z,16.08
2024-05-09T21:30:27.295Z,16.26
2024-05-09T21:32:59.934Z,16.24
2024-05-09T21:35:26.595Z,16.22
2024-05-09T21:37:53.173Z,16.15
2024-05-09T21:40:27.278Z,16.03
2024-05-09T21:43:00.776Z,16.15
2024-05-09T21:45:27.551Z,16.13
2024-05-09T21:47:54.306Z,16.13
2024-05-09T21:50:27.634Z,16.10
2024-05-09T21:52:58.910Z,16.07
2024-05-09T21:55:25.540Z,16.05
2024-05-09T21:57:52.385Z,16.03
2024-05-09T22:00:28.710Z,16.00
2024-05-09T22:03:02.664Z,15.98
2024-05-09T22:05:29.604Z,15.95
2024-05-09T22:07:57.162Z,15.90
2024-05-09T22:10:30.520Z,15.87
2024-05-09T22:13:01.045Z,15.85
2024-05-09T22:15:28.266Z,15.81
2024-05-09T22:17:57.125Z,15.78
2024-05-09T22:20:32.952Z,15.77
2024-05-09T22:23:03.998Z,15.72
2024-05-09T22:25:31.478Z,15.59
2024-05-09T22:27:59.025Z,15.50
2024-05-09T22:30:34.178Z,15.61
2024-05-09T22:33:05.746Z,15.55
2024-05-09T22:35:32.741Z,15.55
2024-05-09T22:37:59.424Z,15.51
2024-05-09T22:40:38.030Z,15.45
2024-05-09T22:43:12.824Z,15.32
2024-05-09T22:45:39.623Z,15.18
2024-05-09T22:48:07.643Z,15.35
2024-05-09T22:50:34.610Z,15.21
2024-05-09T22:53:01.375Z,15.28
2024-05-09T22:55:28.107Z,15.20
2024-05-09T22:57:55.037Z,15.20
2024-05-09T23:00:29.444Z,15.21
2024-05-09T23:03:00.337Z,15.13
2024-05-09T23:05:27.319Z,15.14
2024-05-09T23:07:54.028Z,15.02
2024-05-09T23:10:27.904Z,15.10
2024-05-09T23:13:00.826Z,15.01
2024-05-09T23:15:27.484Z,15.08
2024-05-09T23:17:54.269Z,15.08
2024-05-09T23:20:30.028Z,15.06
2024-05-09T23:23:03.714Z,15.07
2024-05-09T23:25:30.403Z,15.05
2024-05-09T23:27:57.230Z,14.96
2024-05-09T23:30:33.335Z,15.04
2024-05-09T23:33:05.426Z,15.03
2024-05-09T23:35:32.106Z,14.93
2024-05-09T23:37:58.693Z,15.01
2024-05-09T23:40:36.825Z,14.97
2024-05-09T23:43:07.360Z,14.99
2024-05-09T23:45:34.613Z,14.91
2024-05-09T23:48:01.720Z,14.98
2024-05-09T23:50:34.125Z,14.98
2024-05-09T23:53:03.942Z,14.93
2024-05-09T23:55:31.458Z,14.95
2024-05-09T23:57:58.355Z,14.93
